Lavaltrie, Canada
Current Conditions -  °F | °C
As of 9:00 AM on Monday 22 Dec 2014 (Local Time) from CYHU Reporting Station
Overcast Overcast  
Wind Chill:   Ceiling: 1300
Heat Index: 18°   Visibility: 8mi
Dew Point: 14°   Wind: 8mph
Humidity: 86%   Direction: 30°NNE
Pressure: 30.43"   Gusts: NA
Location:  45.88°N, 73.28°W
Report Text: CYHU 221400Z AUTO 03007KT 8SM OVC013 M08/M10 A3043 RMK SLP307
Loading
Personal Weather Stations






























Interactive Weather Map New forecast layout! Learn more

10-Day Weather Forecast

Advertisements
Track Severe Weather on mobile